Time;durP1;ratioP1;P1;durP2;ratioP2;P2;SDS_P1;SDS_P2;PMS_P1;PMS_P2;Temp;Humidity;BMP_temperature;BMP_pressure;BME280_temperature;BME280_humidity;BME280_pressure;Samples;Min_cycle;Max_cycle;Signal;HPM_P1;HPM_P2
2022/05/17 00:01:29;;;;;;;6.97;2.30;;;;;;;15.58;58.91;101227.28;1724672;83;25792;-59
2022/05/17 00:03:55;;;;;;;4.95;2.22;;;;;;;15.54;58.87;101224.05;1724967;83;27678;-60
2022/05/17 00:06:22;;;;;;;8.63;2.50;;;;;;;15.51;58.80;101220.80;1724713;83;25498;-59
2022/05/17 00:08:49;;;;;;;9.88;2.62;;;;;;;15.47;58.85;101221.10;1724736;83;25781;-59
2022/05/17 00:11:16;;;;;;;13.13;2.65;;;;;;;15.45;58.99;101224.98;1724903;83;26204;-59
2022/05/17 00:13:44;;;;;;;10.30;2.62;;;;;;;15.43;59.07;101223.77;1724847;83;25557;-59
2022/05/17 00:16:12;;;;;;;11.70;2.70;;;;;;;15.42;59.17;101228.00;1724691;83;27722;-59
2022/05/17 00:18:39;;;;;;;9.30;2.40;;;;;;;15.38;59.16;101223.88;1724677;83;25756;-59
2022/05/17 00:21:06;;;;;;;12.58;2.62;;;;;;;15.34;59.24;101221.51;1724660;83;25852;-59
2022/05/17 00:23:36;;;;;;;8.53;2.87;;;;;;;15.34;59.30;101216.58;1724563;83;28211;-59
2022/05/17 00:26:05;;;;;;;8.83;2.50;;;;;;;15.37;59.28;101211.37;1724769;83;25968;-59
2022/05/17 00:28:33;;;;;;;7.75;2.75;;;;;;;15.38;59.37;101215.27;1722220;83;46568;-59
2022/05/17 00:31:01;;;;;;;7.35;2.52;;;;;;;15.39;59.45;101210.68;1707065;83;25760;-58
2022/05/17 00:33:28;;;;;;;7.53;2.40;;;;;;;15.40;59.77;101212.39;1740443;82;25712;-58
2022/05/17 00:35:54;;;;;;;6.53;2.52;;;;;;;15.41;59.96;101208.19;1748530;82;26136;-58
2022/05/17 00:38:21;;;;;;;7.80;2.40;;;;;;;15.39;59.92;101211.55;1786127;79;25736;-58
2022/05/17 00:40:49;;;;;;;11.60;2.17;;;;;;;15.40;60.11;101212.39;1786109;80;27532;-58
2022/05/17 00:44:42;;;;;;;15.10;3.15;;;;;;;15.41;60.66;101214.96;1756962;79;25859;-58
2022/05/17 00:46:02;;;;;;;6.08;2.20;;;;;;;15.45;60.87;101214.14;1753278;81;26487;-58
2022/05/17 00:48:29;;;;;;;4.78;2.40;;;;;;;15.45;61.01;101211.43;1754334;81;26255;-58
2022/05/17 00:50:57;;;;;;;11.08;2.52;;;;;;;15.39;62.25;101206.13;1754185;81;25800;-57
2022/05/17 00:53:32;;;;;;;7.70;2.42;;;;;;;15.29;61.74;101202.13;1753680;81;28494;-58
2022/05/17 00:56:10;;;;;;;8.63;2.67;;;;;;;15.25;61.35;101198.05;1738287;81;25792;-58
2022/05/17 00:58:51;;;;;;;9.90;2.67;;;;;;;15.25;61.30;101194.47;1735130;82;25816;-58
2022/05/17 01:01:22;;;;;;;16.57;3.25;;;;;;;15.23;61.36;101191.93;1734321;82;26106;-58
2022/05/17 01:04:15;;;;;;;7.83;2.45;;;;;;;15.23;61.39;101187.87;1735210;82;26119;-57
2022/05/17 01:06:49;;;;;;;5.75;2.15;;;;;;;15.26;61.76;101189.41;1735524;82;27623;-58
2022/05/17 01:09:17;;;;;;;7.78;2.25;;;;;;;15.24;61.29;101193.64;1734987;82;25465;-57
2022/05/17 01:11:44;;;;;;;9.80;2.52;;;;;;;15.25;61.02;101180.44;1735172;82;25709;-58
2022/05/17 01:16:59;;;;;;;9.53;2.65;;;;;;;15.23;60.81;101181.09;1735556;82;26036;-58
2022/05/17 01:19:27;;;;;;;9.90;2.42;;;;;;;15.22;60.53;101177.19;1735058;82;27463;-59
2022/05/17 01:21:54;;;;;;;11.30;2.62;;;;;;;15.18;60.51;101174.78;1735420;82;25694;-59
2022/05/17 01:24:21;;;;;;;13.48;2.67;;;;;;;15.17;60.33;101178.50;1735292;82;25748;-57
2022/05/17 01:26:53;;;;;;;5.70;3.17;;;;;;;15.10;60.29;101184.20;1735347;82;26272;-58
2022/05/17 01:29:20;;;;;;;9.05;2.62;;;;;;;14.94;60.54;101186.77;1735139;82;25708;-58
2022/05/17 01:31:48;;;;;;;7.03;2.75;;;;;;;14.83;60.67;101195.98;1739503;80;28184;-58
2022/05/17 01:34:15;;;;;;;7.58;3.10;;;;;;;14.76;60.66;101201.16;1774760;80;25468;-58
2022/05/17 01:36:42;;;;;;;6.92;2.35;;;;;;;14.68;61.03;101200.55;1774984;80;25721;-58
2022/05/17 01:39:10;;;;;;;10.45;2.60;;;;;;;14.59;61.30;101197.89;1775365;80;26751;-58
2022/05/17 01:41:37;;;;;;;10.23;2.60;;;;;;;14.49;61.23;101203.34;1768042;80;25491;-58
2022/05/17 01:44:05;;;;;;;10.13;2.70;;;;;;;14.42;61.57;101204.95;1744098;82;27608;-58
2022/05/17 01:46:32;;;;;;;7.65;2.55;;;;;;;14.36;61.34;101198.29;1738575;82;25757;-58
2022/05/17 01:48:58;;;;;;;5.42;2.42;;;;;;;14.33;61.37;101195.91;1733002;82;25728;-58
2022/05/17 01:51:26;;;;;;;10.85;2.60;;;;;;;14.30;61.99;101199.73;1732799;82;26075;-58
2022/05/17 01:53:53;;;;;;;7.30;2.62;;;;;;;14.24;62.19;101200.34;1732817;81;25797;-57
2022/05/17 01:56:20;;;;;;;8.30;2.42;;;;;;;14.20;62.40;101200.31;1731091;82;27548;-58
2022/05/17 01:58:47;;;;;;;7.95;2.45;;;;;;;14.15;62.32;101191.77;1730540;82;25821;-58
2022/05/17 02:01:13;;;;;;;8.05;2.15;;;;;;;14.15;62.74;101189.94;1730688;82;25666;-59
2022/05/17 02:03:40;;;;;;;4.05;2.22;;;;;;;14.13;63.02;101182.47;1730872;82;26171;-58
2022/05/17 02:06:07;;;;;;;6.60;2.50;;;;;;;14.14;63.09;101181.95;1730681;82;25797;-58
2022/05/17 02:08:35;;;;;;;4.80;2.40;;;;;;;14.15;63.22;101183.66;1730844;82;27442;-59
2022/05/17 02:11:03;;;;;;;10.40;2.60;;;;;;;14.16;63.34;101183.53;1730416;82;25691;-59
2022/05/17 02:13:31;;;;;;;10.03;3.10;;;;;;;14.15;63.61;101187.72;1732550;82;25666;-59
2022/05/17 02:15:58;;;;;;;8.50;1.95;;;;;;;14.12;63.36;101184.81;1730591;82;25801;-58
2022/05/17 02:18:25;;;;;;;10.93;2.92;;;;;;;14.11;63.36;101191.22;1730722;82;25523;-58
2022/05/17 02:20:52;;;;;;;4.85;1.98;;;;;;;14.06;63.25;101191.67;1730747;82;27461;-58
2022/05/17 02:23:19;;;;;;;5.20;2.17;;;;;;;14.04;63.61;101193.66;1730562;82;25473;-57
2022/05/17 02:25:46;;;;;;;10.43;3.30;;;;;;;14.04;63.57;101203.13;1730725;82;25519;-59
2022/05/17 02:28:14;;;;;;;10.05;2.60;;;;;;;14.01;63.55;101195.81;1730949;82;26271;-58
2022/05/17 02:30:43;;;;;;;11.35;2.35;;;;;;;14.00;63.75;101201.73;1730640;81;26127;-58
2022/05/17 02:33:11;;;;;;;9.08;2.90;;;;;;;14.03;63.65;101214.95;1741591;80;27451;-59
2022/05/17 02:35:39;;;;;;;16.07;3.92;;;;;;;14.04;63.76;101215.30;1785841;79;25680;-59
2022/05/17 02:38:07;;;;;;;10.32;2.12;;;;;;;14.05;63.59;101206.19;1785813;79;25504;-58
2022/05/17 02:40:34;;;;;;;7.72;2.50;;;;;;;14.05;63.52;101203.48;1785855;79;26084;-59
2022/05/17 02:43:02;;;;;;;5.47;2.45;;;;;;;14.07;63.58;101208.25;1750191;80;25696;-58
2022/05/17 02:45:30;;;;;;;6.70;2.70;;;;;;;14.08;63.52;101200.98;1741249;80;28195;-58
2022/05/17 02:47:57;;;;;;;11.18;2.40;;;;;;;14.06;63.77;101201.14;1735308;82;25773;-58
2022/05/17 02:50:24;;;;;;;9.45;2.55;;;;;;;14.01;64.32;101209.34;1735504;82;26078;-57
2022/05/17 02:52:52;;;;;;;6.00;2.75;;;;;;;13.99;63.77;101206.80;1735364;82;27311;-58
2022/05/17 02:55:20;;;;;;;8.10;2.60;;;;;;;14.01;63.75;101209.34;1734756;81;25755;-57
2022/05/17 02:57:47;;;;;;;10.20;2.60;;;;;;;14.01;63.54;101209.34;1735505;82;28485;-58
2022/05/17 03:00:17;;;;;;;6.03;2.67;;;;;;;13.96;63.43;101209.78;1735337;82;25753;-59
2022/05/17 03:02:44;;;;;;;9.28;2.45;;;;;;;13.96;63.59;101211.14;1735342;82;25732;-59
2022/05/17 03:05:13;;;;;;;7.08;3.12;;;;;;;13.96;63.45;101213.84;1735095;82;26142;-58
2022/05/17 03:07:40;;;;;;;8.63;2.67;;;;;;;13.91;63.90;101210.23;1735354;82;25835;-58
2022/05/17 03:10:10;;;;;;;8.13;2.87;;;;;;;13.84;63.66;101206.92;1735184;82;29516;-59
2022/05/17 03:12:38;;;;;;;10.20;3.02;;;;;;;13.77;64.29;101206.14;1735330;82;25713;-58
2022/05/17 03:15:07;;;;;;;9.70;3.08;;;;;;;13.75;64.03;101208.16;1735680;82;25736;-58
2022/05/17 03:17:34;;;;;;;6.12;2.27;;;;;;;13.77;63.96;101206.66;1735403;82;26132;-58
2022/05/17 03:20:01;;;;;;;9.08;2.58;;;;;;;13.81;63.92;101203.98;1735417;82;25699;-58
2022/05/17 03:22:28;;;;;;;7.50;2.60;;;;;;;13.86;63.87;101195.44;1735289;82;28472;-59
2022/05/17 03:24:55;;;;;;;7.33;3.02;;;;;;;13.90;63.88;101198.21;1735185;82;25792;-59
2022/05/17 03:27:23;;;;;;;10.75;2.95;;;;;;;13.94;64.09;101203.66;1735506;82;25724;-58
2022/05/17 03:29:50;;;;;;;7.83;2.62;;;;;;;13.97;63.97;101204.73;1735430;82;26114;-59
2022/05/17 03:32:17;;;;;;;11.48;3.60;;;;;;;14.03;64.04;101203.29;1733628;80;25467;-58
2022/05/17 03:34:45;;;;;;;10.00;2.55;;;;;;;14.07;63.89;101209.61;1730670;82;27411;-58
2022/05/17 03:37:11;;;;;;;14.15;3.08;;;;;;;14.13;64.76;101207.30;1730376;81;26124;-59
2022/05/17 03:39:39;;;;;;;7.83;3.02;;;;;;;14.18;64.48;101214.48;1730710;82;25795;-58
2022/05/17 03:42:09;;;;;;;8.65;2.47;;;;;;;14.21;64.80;101205.56;1734886;82;26911;-59
2022/05/17 03:44:37;;;;;;;8.03;3.10;;;;;;;14.26;64.35;101207.82;1741352;82;25775;-58
2022/05/17 03:47:07;;;;;;;9.80;4.28;;;;;;;14.34;64.56;101216.04;1763881;80;27539;-59
2022/05/17 03:49:39;;;;;;;14.83;4.08;;;;;;;14.42;64.45;101212.59;1775046;80;25811;-59
2022/05/17 03:52:08;;;;;;;7.08;4.05;;;;;;;14.52;63.93;101212.52;1775069;80;25768;-58
2022/05/17 03:54:37;;;;;;;12.82;2.92;;;;;;;14.62;63.83;101208.39;1775311;80;27026;-58
2022/05/17 03:57:06;;;;;;;10.58;2.67;;;;;;;14.70;63.52;101209.90;1778905;80;25779;-58
2022/05/17 03:59:34;;;;;;;9.95;2.90;;;;;;;14.80;63.54;101212.53;1780828;80;27504;-58
2022/05/17 04:02:03;;;;;;;19.20;3.52;;;;;;;14.86;63.32;101215.48;1780900;80;25642;-58
2022/05/17 04:04:30;;;;;;;26.27;3.25;;;;;;;14.93;63.18;101218.41;1780820;80;25742;-58
2022/05/17 04:06:57;;;;;;;12.15;3.02;;;;;;;14.98;63.19;101213.88;1780744;80;28180;-59
2022/05/17 04:09:23;;;;;;;18.55;4.10;;;;;;;15.01;62.88;101221.70;1781046;79;25624;-58
2022/05/17 04:11:51;;;;;;;11.60;3.12;;;;;;;15.04;62.86;101211.92;1780622;80;27636;-58
2022/05/17 04:14:18;;;;;;;11.50;4.22;;;;;;;15.07;62.74;101212.12;1780755;80;25665;-59
2022/05/17 04:16:44;;;;;;;7.85;2.80;;;;;;;15.12;62.75;101217.42;1781093;80;25724;-58
2022/05/17 04:19:14;;;;;;;15.70;4.17;;;;;;;15.14;62.56;101214.55;1781258;80;26133;-58
2022/05/17 04:21:40;;;;;;;12.70;3.67;;;;;;;15.15;62.34;101210.31;1781262;79;25609;-59
2022/05/17 04:24:08;;;;;;;11.30;3.58;;;;;;;15.16;62.18;101209.31;1780949;80;27474;-59
2022/05/17 04:26:35;;;;;;;15.03;4.28;;;;;;;15.20;62.02;101214.43;1780817;80;25649;-58
2022/05/17 04:29:03;;;;;;;13.00;4.28;;;;;;;15.23;61.94;101200.58;1781304;80;25752;-58
2022/05/17 04:31:31;;;;;;;26.27;5.08;;;;;;;15.24;61.78;101203.13;1780911;80;26700;-59
2022/05/17 04:33:58;;;;;;;23.62;5.90;;;;;;;15.24;60.62;101206.35;1743360;82;25778;-58
2022/05/17 04:36:24;;;;;;;25.00;6.22;;;;;;;15.17;60.38;101204.24;1743462;82;27698;-58
2022/05/17 04:38:52;;;;;;;37.75;6.47;;;;;;;15.14;60.53;101205.93;1743166;82;25816;-58
2022/05/17 04:41:20;;;;;;;24.02;6.35;;;;;;;15.16;60.70;101213.37;1742856;82;25721;-58
2022/05/17 04:43:47;;;;;;;20.97;6.33;;;;;;;15.15;60.56;101209.48;1738136;81;26439;-60
2022/05/17 04:46:15;;;;;;;18.00;6.20;;;;;;;15.20;60.68;101211.72;1739872;80;25485;-58
2022/05/17 04:48:42;;;;;;;25.88;6.37;;;;;;;15.21;60.86;101206.13;1743314;82;27551;-58
2022/05/17 04:51:12;;;;;;;29.42;6.65;;;;;;;15.24;61.06;101204.48;1743572;81;25520;-58
2022/05/17 04:53:41;;;;;;;27.15;6.40;;;;;;;15.29;60.79;101210.78;1743308;82;25839;-58
2022/05/17 04:56:12;;;;;;;23.15;6.37;;;;;;;15.37;60.78;101204.08;1743376;81;26183;-58
2022/05/17 04:58:40;;;;;;;22.80;5.55;;;;;;;15.48;60.66;101216.52;1738722;82;26074;-59
2022/05/17 05:01:07;;;;;;;26.73;6.15;;;;;;;15.56;60.38;101216.58;1738673;82;27480;-59
2022/05/17 05:03:34;;;;;;;26.20;6.03;;;;;;;15.63;60.20;101210.02;1738597;82;25701;-59
2022/05/17 05:06:00;;;;;;;22.67;5.80;;;;;;;15.71;59.77;101216.02;1738708;81;25735;-58
2022/05/17 05:08:27;;;;;;;16.82;4.47;;;;;;;15.75;59.45;101221.45;1738498;82;26163;-58
2022/05/17 05:10:55;;;;;;;21.45;5.37;;;;;;;15.80;59.07;101213.70;1738507;82;25788;-58
2022/05/17 05:13:25;;;;;;;22.70;5.67;;;;;;;15.74;57.81;101220.62;1738496;82;27689;-58
2022/05/17 05:15:54;;;;;;;13.48;4.72;;;;;;;15.75;57.72;101218.73;1738913;82;25884;-58
2022/05/17 05:18:20;;;;;;;20.15;4.70;;;;;;;15.68;56.94;101212.26;1738545;81;25700;-58
2022/05/17 05:20:47;;;;;;;21.25;5.78;;;;;;;15.65;56.72;101215.63;1738509;82;26086;-58
2022/05/17 05:23:14;;;;;;;16.07;4.67;;;;;;;15.65;56.41;101217.50;1738288;82;25759;-59
2022/05/17 05:25:42;;;;;;;20.85;4.37;;;;;;;15.70;56.07;101220.58;1738569;82;27522;-59
2022/05/17 05:28:10;;;;;;;21.37;4.50;;;;;;;15.73;55.83;101219.43;1738190;82;25856;-59
2022/05/17 05:30:38;;;;;;;17.95;4.17;;;;;;;15.72;55.61;101215.84;1738869;82;25630;-59
2022/05/17 05:33:05;;;;;;;14.98;4.42;;;;;;;15.74;55.36;101218.39;1769398;79;26053;-59
2022/05/17 05:35:32;;;;;;;14.43;4.50;;;;;;;15.74;55.42;101218.39;1750818;80;25683;-59
2022/05/17 05:38:02;;;;;;;14.35;5.22;;;;;;;15.78;55.49;101211.66;1737829;82;27545;-59
2022/05/17 05:40:29;;;;;;;20.60;4.22;;;;;;;15.76;55.22;101213.18;1738338;81;25807;-59
2022/05/17 05:42:57;;;;;;;15.95;4.10;;;;;;;15.78;55.35;101208.94;1735109;81;25887;-59
2022/05/17 05:45:27;;;;;;;25.65;4.95;;;;;;;15.83;55.50;101212.02;1767069;79;26087;-59
2022/05/17 05:47:53;;;;;;;21.02;4.55;;;;;;;15.94;55.62;101213.66;1711954;83;25773;-59
2022/05/17 05:50:20;;;;;;;18.67;5.67;;;;;;;16.01;55.58;101211.99;1711704;83;28308;-59
2022/05/17 05:52:48;;;;;;;19.15;6.08;;;;;;;16.08;55.38;101208.97;1711699;82;25832;-58
2022/05/17 05:55:21;;;;;;;21.05;5.95;;;;;;;16.16;55.38;101208.66;1712300;83;25717;-59
2022/05/17 05:57:49;;;;;;;14.98;4.85;;;;;;;16.21;54.99;101221.26;1707387;81;26022;-59
2022/05/17 06:00:20;;;;;;;19.00;4.33;;;;;;;16.26;54.66;101212.11;1766390;81;25693;-59
2022/05/17 06:02:47;;;;;;;17.35;4.97;;;;;;;16.31;54.38;101211.12;1767504;81;28659;-59
2022/05/17 06:05:14;;;;;;;19.60;5.05;;;;;;;16.37;53.94;101214.54;1767669;80;25501;-59
2022/05/17 06:07:41;;;;;;;17.55;4.20;;;;;;;16.47;54.15;101216.27;1767228;81;25743;-60
2022/05/17 06:10:10;;;;;;;16.20;4.95;;;;;;;16.56;53.84;101205.26;1767411;80;26088;-60
2022/05/17 06:12:37;;;;;;;19.37;4.55;;;;;;;16.64;53.64;101203.08;1767231;81;26388;-60
2022/05/17 06:15:06;;;;;;;10.00;3.47;;;;;;;16.72;53.79;101199.52;1767222;81;29547;-59
2022/05/17 06:17:33;;;;;;;21.82;4.67;;;;;;;16.77;53.04;101198.53;1767495;80;26189;-59
2022/05/17 06:20:00;;;;;;;15.30;4.08;;;;;;;16.79;53.00;101201.94;1767258;81;25775;-60
2022/05/17 06:22:28;;;;;;;17.65;4.55;;;;;;;16.83;52.74;101206.00;1767546;81;26206;-59
2022/05/17 06:24:55;;;;;;;13.00;4.50;;;;;;;16.89;53.01;101201.77;1767371;81;25785;-60
2022/05/17 06:27:21;;;;;;;16.65;4.22;;;;;;;16.93;52.55;101203.19;1767342;80;27626;-60
2022/05/17 06:29:48;;;;;;;14.10;4.83;;;;;;;16.98;52.60;101199.44;1767531;80;25743;-59
2022/05/17 06:32:16;;;;;;;18.52;4.35;;;;;;;17.06;52.73;101205.41;1763786;81;25788;-59
2022/05/17 06:34:45;;;;;;;21.00;6.15;;;;;;;17.16;52.73;101197.07;1755035;81;26080;-59
2022/05/17 06:37:13;;;;;;;15.30;4.80;;;;;;;17.25;52.92;101195.22;1759412;81;25707;-59
2022/05/17 06:39:40;;;;;;;18.32;4.22;;;;;;;17.37;52.66;101193.84;1759202;80;27638;-59
2022/05/17 06:42:08;;;;;;;15.98;4.67;;;;;;;17.46;52.39;101190.62;1743459;81;25720;-59
2022/05/17 06:44:37;;;;;;;16.62;4.60;;;;;;;17.58;51.91;101193.83;1706072;84;25725;-59
2022/05/17 06:47:05;;;;;;;13.45;4.72;;;;;;;17.66;51.70;101195.17;1742271;81;26220;-59
2022/05/17 06:49:32;;;;;;;17.00;4.47;;;;;;;17.73;49.85;101198.06;1759876;80;25498;-59
2022/05/17 06:52:06;;;;;;;17.30;4.50;;;;;;;17.77;50.12;101204.84;1740881;81;27433;-60
2022/05/17 06:54:33;;;;;;;16.55;4.65;;;;;;;17.90;49.88;101204.30;1759846;80;25772;-59
2022/05/17 06:57:08;;;;;;;15.98;3.37;;;;;;;18.02;49.42;101202.95;1759814;80;25719;-59
2022/05/17 06:59:37;;;;;;;16.32;4.00;;;;;;;18.10;47.11;101201.55;1759607;80;26126;-59
2022/05/17 07:02:05;;;;;;;15.40;3.45;;;;;;;18.20;46.98;101201.86;1759978;81;25792;-59
2022/05/17 07:04:33;;;;;;;12.88;2.52;;;;;;;18.29;46.06;101198.92;1759919;80;27461;-59
2022/05/17 07:07:01;;;;;;;12.68;2.37;;;;;;;18.39;45.34;101200.08;1760032;80;25995;-59
2022/05/17 07:09:30;;;;;;;13.53;2.85;;;;;;;18.47;44.75;101195.09;1759556;81;25786;-59
2022/05/17 07:14:43;;;;;;;9.85;3.20;;;;;;;18.68;43.35;101190.40;1759745;80;26426;-60
2022/05/17 07:17:22;;;;;;;14.13;3.45;;;;;;;18.80;43.98;101187.23;1759413;81;27470;-59
2022/05/17 07:19:49;;;;;;;19.05;3.15;;;;;;;18.88;44.51;101185.33;1759617;80;26239;-58
2022/05/17 07:22:17;;;;;;;16.32;3.60;;;;;;;18.96;43.65;101179.50;1759857;81;25694;-59
2022/05/17 07:24:46;;;;;;;20.20;3.55;;;;;;;19.05;43.64;101173.80;1759861;81;26115;-59
2022/05/17 07:27:14;;;;;;;10.70;3.15;;;;;;;19.15;43.54;101168.61;1759938;81;25740;-59
2022/05/17 07:29:41;;;;;;;13.13;3.35;;;;;;;19.18;44.22;101166.39;1759707;81;27454;-59
2022/05/17 07:32:10;;;;;;;24.98;4.05;;;;;;;19.26;44.28;101161.36;1761790;81;25831;-59
2022/05/17 07:34:36;;;;;;;16.27;3.60;;;;;;;19.34;44.40;101165.37;1767395;81;25787;-59
2022/05/17 07:37:04;;;;;;;10.35;3.02;;;;;;;19.43;43.92;101162.56;1766829;81;26207;-60
2022/05/17 07:39:31;;;;;;;15.93;3.15;;;;;;;19.50;44.16;101159.42;1767613;79;25736;-60
2022/05/17 07:41:59;;;;;;;15.05;4.15;;;;;;;19.57;44.10;101161.76;1753929;81;27553;-60
2022/05/17 07:44:26;;;;;;;17.85;3.75;;;;;;;19.64;43.87;101161.34;1731606;82;25731;-60
2022/05/17 07:46:54;;;;;;;17.07;3.27;;;;;;;19.68;43.65;101157.72;1731617;82;25440;-60
2022/05/17 07:49:20;;;;;;;13.32;3.30;;;;;;;19.77;43.86;101158.45;1731707;81;26114;-60
2022/05/17 07:51:47;;;;;;;14.05;3.52;;;;;;;19.88;44.09;101155.83;1731650;82;26081;-60
2022/05/17 07:54:14;;;;;;;21.90;3.58;;;;;;;19.98;43.62;101157.23;1731673;82;27475;-60
2022/05/17 07:56:41;;;;;;;11.50;2.75;;;;;;;20.09;43.71;101158.63;1731610;81;25460;-60
2022/05/17 07:59:09;;;;;;;9.65;2.95;;;;;;;20.20;43.13;101153.22;1730828;82;25705;-59
2022/05/17 08:01:37;;;;;;;18.57;2.58;;;;;;;20.27;42.12;101158.23;1730679;81;26320;-60
2022/05/17 08:04:05;;;;;;;14.55;2.50;;;;;;;20.38;42.24;101151.42;1730611;82;25488;-60
2022/05/17 08:06:31;;;;;;;10.88;2.87;;;;;;;20.51;41.27;101150.73;1730798;82;27452;-60
2022/05/17 08:08:58;;;;;;;12.40;3.25;;;;;;;20.61;40.99;101147.17;1730606;82;25927;-60
2022/05/17 08:11:25;;;;;;;16.20;2.80;;;;;;;20.73;41.11;101149.40;1730773;82;25753;-60
2022/05/17 08:13:52;;;;;;;9.78;2.67;;;;;;;20.82;41.27;101142.80;1730630;82;26053;-60
2022/05/17 08:16:18;;;;;;;7.97;2.85;;;;;;;20.97;41.18;101144.09;1730616;82;25792;-60
2022/05/17 08:18:45;;;;;;;10.15;2.65;;;;;;;21.10;40.67;101137.36;1730415;81;27485;-60
2022/05/17 08:21:12;;;;;;;6.90;2.00;;;;;;;21.31;39.70;101134.28;1730764;82;25817;-59
2022/05/17 08:23:39;;;;;;;7.58;2.33;;;;;;;21.43;39.76;101127.73;1731036;82;25523;-60
2022/05/17 08:28:51;;;;;;;15.50;2.37;;;;;;;21.69;37.80;101133.95;1730647;82;26130;-59
2022/05/17 08:31:18;;;;;;;11.38;2.05;;;;;;;21.87;38.27;101127.92;1730679;82;27481;-59
2022/05/17 08:33:45;;;;;;;11.75;2.25;;;;;;;22.02;38.07;101124.19;1735016;82;25851;-59
2022/05/17 08:36:12;;;;;;;4.50;2.10;;;;;;;22.14;37.20;101123.11;1735419;82;25757;-61
2022/05/17 08:38:48;;;;;;;9.78;1.70;;;;;;;22.24;35.98;101114.48;1735465;82;26093;-60
2022/05/17 08:41:40;;;;;;;7.00;2.37;;;;;;;22.45;36.19;101115.76;1735940;82;25721;-60
2022/05/17 08:44:13;;;;;;;9.90;2.00;;;;;;;22.58;35.42;101118.19;1741244;82;28550;-60
2022/05/17 08:47:11;;;;;;;17.77;2.25;;;;;;;22.76;36.32;101121.18;1736185;80;26110;-59
2022/05/17 08:49:46;;;;;;;12.23;2.45;;;;;;;22.93;35.14;101109.80;1730417;82;25770;-60
2022/05/17 08:52:18;;;;;;;5.42;1.47;;;;;;;23.11;34.08;101110.55;1730528;82;26081;-60
2022/05/17 08:55:01;;;;;;;9.00;1.90;;;;;;;23.20;33.50;101111.20;1730224;82;25796;-60
2022/05/17 08:57:39;;;;;;;10.38;2.22;;;;;;;23.35;33.15;101103.61;1731065;82;27275;-59
2022/05/17 09:00:24;;;;;;;8.28;1.67;;;;;;;23.48;32.41;101106.86;1732508;82;25492;-60
2022/05/17 09:03:06;;;;;;;7.08;1.60;;;;;;;23.54;30.93;101105.13;1732953;81;25812;-59
2022/05/17 09:05:59;;;;;;;8.40;1.98;;;;;;;23.72;31.91;101100.34;1731527;82;26931;-59
2022/05/17 09:08:51;;;;;;;5.40;1.52;;;;;;;23.96;31.79;101100.19;1733043;82;25555;-59
2022/05/17 09:11:23;;;;;;;4.42;1.40;;;;;;;24.22;31.42;101102.50;1732887;81;27552;-59
2022/05/17 09:14:19;;;;;;;9.55;1.57;;;;;;;24.54;31.04;101092.38;1731705;82;25687;-59
2022/05/17 09:17:00;;;;;;;8.65;1.60;;;;;;;24.76;28.83;101093.95;1732180;82;25740;-59
2022/05/17 09:19:28;;;;;;;5.75;1.42;;;;;;;24.97;28.70;101100.43;1732847;82;26883;-60
2022/05/17 09:21:58;;;;;;;13.75;2.02;;;;;;;25.32;28.63;101092.19;1732706;82;25724;-60
2022/05/17 09:24:30;;;;;;;3.92;1.72;;;;;;;25.80;29.10;101088.44;1732565;82;27495;-62
2022/05/17 09:27:14;;;;;;;17.42;2.30;;;;;;;26.31;28.44;101078.88;1732408;82;26194;-60
2022/05/17 09:29:46;;;;;;;5.80;1.80;;;;;;;26.74;27.36;101076.97;1720151;82;26227;-59
2022/05/17 09:32:23;;;;;;;8.93;1.90;;;;;;;27.01;27.44;101081.52;1732907;81;26784;-61
2022/05/17 09:34:59;;;;;;;3.67;1.52;;;;;;;27.44;27.50;101078.66;1710291;83;25913;-60
2022/05/17 09:37:34;;;;;;;8.33;1.55;;;;;;;27.87;25.63;101075.16;1678259;85;28296;-59
2022/05/17 09:40:07;;;;;;;9.05;1.77;;;;;;;28.19;24.83;101073.35;1678384;85;25451;-58
2022/05/17 09:42:54;;;;;;;5.40;1.50;;;;;;;28.34;24.83;101065.33;1672348;84;25770;-58
2022/05/17 09:45:42;;;;;;;7.50;1.80;;;;;;;28.76;24.95;101061.39;1718196;83;26791;-58
2022/05/17 09:48:11;;;;;;;5.03;1.47;;;;;;;29.07;24.98;101062.42;1719868;83;25771;-59
2022/05/17 09:53:49;;;;;;;13.88;1.95;;;;;;;29.71;24.13;101054.20;1725348;82;25767;-59
2022/05/17 09:56:25;;;;;;;13.00;1.47;;;;;;;29.58;24.05;101048.49;1725548;82;25724;-59
2022/05/17 09:58:52;;;;;;;11.10;2.72;;;;;;;29.27;23.31;101048.03;1725579;82;26127;-59
2022/05/17 10:01:25;;;;;;;8.33;1.47;;;;;;;28.94;24.54;101043.67;1726046;83;25440;-59
2022/05/17 10:04:10;;;;;;;6.75;1.75;;;;;;;28.73;24.31;101043.33;1725891;82;27599;-58
2022/05/17 10:06:42;;;;;;;5.35;1.40;;;;;;;29.10;24.22;101038.36;1726019;83;25712;-58
2022/05/17 10:09:32;;;;;;;7.37;1.32;;;;;;;29.60;24.00;101032.41;1726080;82;25487;-59
2022/05/17 10:12:27;;;;;;;14.65;1.65;;;;;;;30.03;23.49;101032.67;1725942;83;25732;-60
2022/05/17 10:14:59;;;;;;;7.47;1.35;;;;;;;30.39;21.85;101033.86;1688166;82;26073;-59
2022/05/17 10:17:43;;;;;;;9.55;1.75;;;;;;;30.70;21.23;101028.62;1689470;84;27484;-60
2022/05/17 10:20:18;;;;;;;7.75;2.05;;;;;;;31.02;21.57;101028.28;1714391;83;25777;-59
2022/05/17 10:22:59;;;;;;;6.92;1.70;;;;;;;31.27;21.20;101019.84;1714279;83;25737;-60
2022/05/17 10:25:55;;;;;;;8.70;1.45;;;;;;;31.43;20.84;101024.36;1714038;82;26126;-60
2022/05/17 10:28:53;;;;;;;14.87;1.42;;;;;;;31.58;20.45;101012.48;1682197;84;25517;-59
2022/05/17 10:31:46;;;;;;;19.95;2.20;;;;;;;31.59;20.81;101012.77;1681616;85;27519;-59
2022/05/17 10:34:24;;;;;;;9.75;1.52;;;;;;;31.72;21.22;100999.50;1682296;84;25846;-59
2022/05/17 10:37:00;;;;;;;12.07;1.95;;;;;;;31.19;21.53;100994.81;1682113;84;25951;-60
2022/05/17 10:39:39;;;;;;;5.17;1.42;;;;;;;30.58;21.96;101001.58;1682820;83;26115;-58
2022/05/17 10:42:07;;;;;;;10.85;1.87;;;;;;;30.21;21.84;100999.02;1679785;85;25720;-59
2022/05/17 10:44:41;;;;;;;15.03;2.00;;;;;;;29.98;21.92;100993.24;1676433;85;27512;-59
2022/05/17 10:47:19;;;;;;;3.52;1.40;;;;;;;29.88;22.47;100988.41;1697925;84;25819;-58
2022/05/17 10:50:13;;;;;;;8.48;1.67;;;;;;;29.88;22.80;100989.80;1704613;83;25784;-59
2022/05/17 10:52:55;;;;;;;;;;;;;;;29.87;22.32;100993.66;1709068;84;25882;-58
2022/05/17 10:55:40;;;;;;;2.58;1.45;;;;;;;29.41;22.60;100994.50;1706827;84;25679;-59
2022/05/17 10:58:38;;;;;;;6.78;1.70;;;;;;;29.33;22.95;100990.23;1701054;83;27443;-59
2022/05/17 11:01:43;;;;;;;12.73;2.27;;;;;;;29.32;23.11;100988.55;1706907;83;26149;-60
2022/05/17 11:05:01;;;;;;;6.03;1.92;;;;;;;29.35;22.65;100983.36;1707360;84;25786;-59
2022/05/17 11:08:03;;;;;;;4.72;1.50;;;;;;;29.38;22.62;100986.69;1706949;84;26159;-59
2022/05/17 11:10:56;;;;;;;5.92;1.65;;;;;;;29.55;22.78;100980.53;1679071;85;25875;-59
2022/05/17 11:13:47;;;;;;;7.85;1.98;;;;;;;30.04;22.09;100974.72;1707310;82;27564;-58
2022/05/17 11:16:26;;;;;;;8.35;1.35;;;;;;;30.28;21.93;100973.28;1709892;83;25761;-58
2022/05/17 11:19:22;;;;;;;9.33;1.80;;;;;;;30.64;22.15;100968.61;1710412;83;25526;-59
2022/05/17 11:21:57;;;;;;;10.03;1.92;;;;;;;30.64;22.08;100971.39;1709850;82;26204;-59
2022/05/17 11:24:41;;;;;;;9.20;1.95;;;;;;;30.66;21.73;100966.94;1682051;85;25791;-59
2022/05/17 11:27:40;;;;;;;16.05;1.70;;;;;;;30.45;21.21;100968.99;1682264;84;27434;-60
2022/05/17 11:30:30;;;;;;;8.20;2.10;;;;;;;30.01;22.14;100962.75;1681329;84;25774;-60
2022/05/17 11:33:26;;;;;;;11.70;1.87;;;;;;;29.78;22.42;100966.11;1717184;82;25775;-60
2022/05/17 11:36:10;;;;;;;6.28;2.27;;;;;;;29.49;22.67;100964.95;1740727;82;26068;-59
2022/05/17 11:38:47;;;;;;;8.20;1.67;;;;;;;29.53;22.23;100959.19;1740805;82;25749;-60
2022/05/17 11:41:22;;;;;;;5.47;1.67;;;;;;;29.50;22.73;100961.08;1738929;82;27454;-60
2022/05/17 11:44:05;;;;;;;7.33;1.80;;;;;;;29.41;21.78;100950.16;1710612;83;25941;-60
2022/05/17 11:46:43;;;;;;;12.75;1.67;;;;;;;29.44;22.04;100949.09;1723395;82;25432;-59
2022/05/17 11:49:21;;;;;;;15.53;2.40;;;;;;;29.33;22.17;100947.28;1741044;82;26710;-59
2022/05/17 11:52:08;;;;;;;4.97;2.65;;;;;;;29.03;21.86;100952.14;1740142;81;25960;-59
2022/05/17 11:54:51;;;;;;;20.62;5.42;;;;;;;29.12;22.45;100941.47;1740514;82;27526;-59